createdAt,value
2022-11-19T00:01:03.095Z,25.4
2022-11-19T00:06:03.646Z,26.2
2022-11-19T00:11:04.210Z,25.8
2022-11-19T00:16:01.104Z,26.5
2022-11-19T00:21:01.808Z,26.9
2022-11-19T00:26:13.766Z,25.8
2022-11-19T00:31:01.494Z,24.4
2022-11-19T00:36:02.931Z,24.8
2022-11-19T00:41:01.423Z,24.0
2022-11-19T00:46:01.473Z,23.6
2022-11-19T00:51:01.260Z,23.8
2022-11-19T00:56:01.165Z,24.8
2022-11-19T01:01:01.426Z,23.8
2022-11-19T01:06:01.661Z,22.8
2022-11-19T01:11:01.394Z,21.6
2022-11-19T01:16:06.295Z,21.2
2022-11-19T01:21:01.171Z,19.6
2022-11-19T01:26:01.346Z,21.1
2022-11-19T01:31:01.293Z,21.9
2022-11-19T01:36:01.016Z,22.4
2022-11-19T01:41:01.081Z,22.0
2022-11-19T01:46:01.031Z,22.2
2022-11-19T01:51:01.120Z,21.4
2022-11-19T01:56:03.348Z,20.7
2022-11-19T02:01:01.612Z,20.1
2022-11-19T02:06:01.373Z,19.4
2022-11-19T02:11:01.119Z,20.0
2022-11-19T02:16:01.394Z,21.6
2022-11-19T02:21:01.267Z,19.2
2022-11-19T02:26:01.649Z,19.8
2022-11-19T02:31:01.292Z,20.3
2022-11-19T02:36:01.386Z,20.8
2022-11-19T02:41:01.265Z,18.2
2022-11-19T02:46:01.058Z,20.1
2022-11-19T02:51:01.432Z,18.7
2022-11-19T02:56:01.356Z,19.4
2022-11-19T03:01:01.076Z,17.6
2022-11-19T03:06:05.315Z,17.2
2022-11-19T03:11:06.280Z,16.6
2022-11-19T03:16:05.609Z,18.0
2022-11-19T03:21:04.997Z,17.6
2022-11-19T03:26:01.508Z,18.3
2022-11-19T03:31:01.611Z,20.6
2022-11-19T03:36:01.250Z,21.1
2022-11-19T03:41:01.565Z,20.4
2022-11-19T03:46:01.548Z,20.5
2022-11-19T03:51:06.712Z,18.7
2022-11-19T03:56:01.551Z,17.6
2022-11-19T04:01:01.984Z,18.8
2022-11-19T04:06:02.050Z,20.7
2022-11-19T04:16:02.038Z,26.6
2022-11-19T04:21:01.560Z,27.8
2022-11-19T04:26:01.587Z,30.4
2022-11-19T04:31:01.558Z,31.2
2022-11-19T04:36:01.594Z,31.5
2022-11-19T04:41:01.592Z,29.2
2022-11-19T04:46:01.572Z,26.0
2022-11-19T04:51:02.126Z,24.3
2022-11-19T04:56:01.568Z,22.0
2022-11-19T05:01:01.553Z,19.0
2022-11-19T05:06:01.656Z,19.4
2022-11-19T05:11:16.968Z,21.8
2022-11-19T05:16:01.617Z,20.5
2022-11-19T05:21:01.522Z,22.1
2022-11-19T05:26:01.533Z,23.4
2022-11-19T05:36:01.590Z,24.0
2022-11-19T05:41:01.547Z,23.4
2022-11-19T05:46:01.545Z,19.4
2022-11-19T05:51:02.197Z,18.0
2022-11-19T05:56:02.407Z,17.5
2022-11-19T06:01:02.716Z,16.9
2022-11-19T06:06:01.572Z,17.0
2022-11-19T06:11:02.131Z,21.4
2022-11-19T06:16:01.638Z,23.0
2022-11-19T06:21:01.896Z,23.6
2022-11-19T06:26:01.576Z,24.2
2022-11-19T06:31:01.545Z,24.4
2022-11-19T06:36:02.086Z,22.7
2022-11-19T06:41:01.549Z,23.1
2022-11-19T06:46:02.036Z,25.8
2022-11-19T06:51:01.505Z,24.6
2022-11-19T06:56:01.524Z,25.6
2022-11-19T07:06:01.519Z,25.7
2022-11-19T07:11:01.522Z,23.6
2022-11-19T07:16:01.551Z,23.5
2022-11-19T07:21:01.614Z,23.4
2022-11-19T07:26:01.530Z,23.1
2022-11-19T07:31:03.948Z,22.4
2022-11-19T07:36:01.545Z,23.2
2022-11-19T07:41:02.132Z,24.3
2022-11-19T07:46:04.524Z,25.4
2022-11-19T07:51:01.519Z,28.6
2022-11-19T07:56:01.623Z,35.6
2022-11-19T08:01:01.536Z,40.9
2022-11-19T08:06:01.517Z,44.1
2022-11-19T08:11:02.058Z,45.2
2022-11-19T08:16:01.542Z,42.8
2022-11-19T08:21:01.514Z,41.2
2022-11-19T08:26:01.522Z,34.4
2022-11-19T08:31:06.465Z,35.5
2022-11-19T08:36:01.513Z,36.1
2022-11-19T08:41:01.915Z,38.0
2022-11-19T08:46:01.799Z,34.4
2022-11-19T08:51:01.683Z,39.0
2022-11-19T08:56:01.530Z,38.0
2022-11-19T09:01:01.541Z,39.0
2022-11-19T09:06:01.564Z,38.5
2022-11-19T09:11:01.546Z,36.8
2022-11-19T09:16:01.509Z,36.5
2022-11-19T09:21:01.516Z,37.6
2022-11-19T09:26:01.528Z,37.8
2022-11-19T09:31:01.660Z,39.7
2022-11-19T09:36:01.519Z,43.6
2022-11-19T09:41:01.556Z,44.1
2022-11-19T09:46:01.516Z,44.9
2022-11-19T09:51:07.235Z,44.2
2022-11-19T09:56:01.432Z,47.6
2022-11-19T10:01:01.535Z,49.0
2022-11-19T10:06:01.419Z,51.1
2022-11-19T10:11:01.441Z,51.2
2022-11-19T10:17:01.398Z,51.9
2022-11-19T10:22:01.503Z,49.6
2022-11-19T10:27:24.545Z,49.4
2022-11-19T10:32:01.511Z,48.1
2022-11-19T10:37:01.508Z,46.4
2022-11-19T10:42:01.530Z,48.7
2022-11-19T10:47:04.639Z,50.1
2022-11-19T10:52:02.055Z,52.4
2022-11-19T10:57:01.418Z,54.2
2022-11-19T11:07:01.528Z,51.7
2022-11-19T11:12:01.511Z,50.5
2022-11-19T11:17:01.516Z,45.8
2022-11-19T11:22:01.516Z,40.9
2022-11-19T11:27:01.621Z,41.0
2022-11-19T11:32:01.517Z,38.6
2022-11-19T11:37:01.718Z,36.8
2022-11-19T11:42:05.690Z,36.9
2022-11-19T11:47:01.551Z,33.1
2022-11-19T11:52:01.508Z,30.0
2022-11-19T11:57:01.524Z,31.3
2022-11-19T12:02:01.487Z,30.1
2022-11-19T12:07:01.602Z,30.4
2022-11-19T12:12:01.481Z,34.6
2022-11-19T12:17:01.518Z,35.6
2022-11-19T12:22:01.508Z,32.9
2022-11-19T12:27:16.887Z,29.6
2022-11-19T12:32:01.513Z,25.3
2022-11-19T12:37:01.551Z,24.0
2022-11-19T12:42:01.509Z,22.9
2022-11-19T12:47:01.448Z,23.6
2022-11-19T12:52:01.523Z,23.3
2022-11-19T12:57:01.411Z,23.1
2022-11-19T13:02:01.519Z,20.3
2022-11-19T13:07:01.652Z,17.2
2022-11-19T13:12:01.515Z,14.3
2022-11-19T13:17:01.512Z,16.0
2022-11-19T13:22:01.607Z,17.7
2022-11-19T13:27:01.538Z,19.9
2022-11-19T13:32:01.523Z,27.0
2022-11-19T13:37:01.527Z,29.1
2022-11-19T13:42:01.525Z,28.4
2022-11-19T13:47:01.529Z,27.4
2022-11-19T13:52:01.507Z,25.9
2022-11-19T13:57:01.585Z,19.7
2022-11-19T14:02:01.508Z,18.0
2022-11-19T14:07:01.553Z,18.7
2022-11-19T14:12:01.386Z,20.4
2022-11-19T14:17:14.959Z,21.2
2022-11-19T14:22:01.195Z,21.4
2022-11-19T14:27:14.942Z,22.1
2022-11-19T14:32:01.236Z,19.6
2022-11-19T14:37:01.216Z,16.6
2022-11-19T14:42:01.531Z,14.8
2022-11-19T14:47:01.365Z,13.8
2022-11-19T14:52:01.354Z,13.9
2022-11-19T14:57:01.198Z,16.3
2022-11-19T15:02:01.297Z,17.8
2022-11-19T15:07:01.150Z,18.4
2022-11-19T15:12:01.032Z,19.4
2022-11-19T15:17:01.371Z,18.2
2022-11-19T15:27:01.085Z,18.5
2022-11-19T15:32:01.378Z,19.2
2022-11-19T15:37:07.587Z,19.8
2022-11-19T15:42:01.386Z,21.7
2022-11-19T15:47:01.286Z,21.8
2022-11-19T15:52:01.378Z,20.7
2022-11-19T15:57:01.483Z,21.9
2022-11-19T16:02:01.555Z,22.6
2022-11-19T16:07:01.497Z,23.2
2022-11-19T16:12:01.798Z,25.4
2022-11-19T16:17:16.878Z,28.0
2022-11-19T16:22:03.315Z,30.8
2022-11-19T16:27:23.396Z,36.8
2022-11-19T16:32:01.090Z,43.0
2022-11-19T16:37:01.473Z,48.5
2022-11-19T16:42:02.419Z,55.4
2022-11-19T16:47:01.098Z,57.6
2022-11-19T16:52:01.648Z,56.4
2022-11-19T16:57:01.376Z,52.9
2022-11-19T17:02:01.174Z,49.2
2022-11-19T17:07:01.312Z,41.6
2022-11-19T17:12:01.586Z,43.3
2022-11-19T17:17:01.437Z,42.0
2022-11-19T17:22:01.556Z,42.2
2022-11-19T17:27:01.579Z,41.5
2022-11-19T17:32:01.555Z,45.1
2022-11-19T17:38:01.563Z,44.1
2022-11-19T17:43:01.639Z,49.9
2022-11-19T17:48:01.132Z,50.7
2022-11-19T17:53:01.538Z,55.5
2022-11-19T17:58:13.380Z,60.3
2022-11-19T18:03:03.157Z,63.1
2022-11-19T18:08:01.567Z,61.3
2022-11-19T18:13:15.303Z,65.3
2022-11-19T18:18:01.456Z,62.9
2022-11-19T18:23:01.563Z,62.4
2022-11-19T18:28:01.636Z,60.2
2022-11-19T18:33:01.586Z,54.4
2022-11-19T18:38:01.552Z,50.3
2022-11-19T18:43:01.789Z,52.7
2022-11-19T18:48:01.560Z,52.5
2022-11-19T18:53:01.686Z,52.8
2022-11-19T18:58:01.576Z,58.8
2022-11-19T19:03:01.587Z,62.2
2022-11-19T19:08:01.469Z,62.0
2022-11-19T19:13:02.041Z,61.1
2022-11-19T19:18:08.968Z,56.2
2022-11-19T19:23:02.577Z,55.2
2022-11-19T19:28:01.537Z,54.9
2022-11-19T19:33:01.596Z,51.0
2022-11-19T19:38:01.556Z,48.6
2022-11-19T19:43:01.540Z,49.6
2022-11-19T19:48:01.539Z,46.2
2022-11-19T19:53:01.555Z,46.5
2022-11-19T19:58:02.236Z,46.0
2022-11-19T20:03:02.060Z,49.0
2022-11-19T20:08:01.986Z,52.4
2022-11-19T20:13:01.680Z,56.0
2022-11-19T20:18:01.777Z,52.3
2022-11-19T20:23:01.375Z,54.3
2022-11-19T20:28:01.353Z,52.4
2022-11-19T20:33:01.846Z,53.8
2022-11-19T20:38:03.573Z,53.4
2022-11-19T20:43:01.239Z,57.6
2022-11-19T20:48:01.379Z,60.5
2022-11-19T20:53:01.500Z,62.1
2022-11-19T20:58:01.651Z,63.8
2022-11-19T21:03:01.071Z,68.4
2022-11-19T21:08:01.292Z,72.8
2022-11-19T21:13:01.733Z,73.2
2022-11-19T21:18:00.972Z,76.9
2022-11-19T21:23:01.900Z,80.0
2022-11-19T21:28:01.746Z,80.5
2022-11-19T21:33:02.040Z,76.7
2022-11-19T21:38:01.364Z,75.4
2022-11-19T21:43:01.363Z,69.4
2022-11-19T21:48:01.356Z,63.2
2022-11-19T21:53:01.090Z,56.4
2022-11-19T21:58:01.868Z,52.7
2022-11-19T22:03:01.530Z,51.1
2022-11-19T22:08:01.356Z,56.0
2022-11-19T22:13:01.386Z,58.9
2022-11-19T22:18:01.864Z,64.5
2022-11-19T22:23:01.056Z,68.9
2022-11-19T22:28:01.237Z,65.8
2022-11-19T22:33:01.571Z,64.8
2022-11-19T22:38:02.078Z,64.2
2022-11-19T22:43:01.760Z,60.8
2022-11-19T22:48:01.535Z,59.2
2022-11-19T22:53:01.564Z,60.8
2022-11-19T22:58:01.531Z,57.8
2022-11-19T23:03:01.535Z,56.4
2022-11-19T23:08:01.557Z,54.0
2022-11-19T23:13:02.796Z,50.6
2022-11-19T23:18:01.272Z,50.0
2022-11-19T23:23:01.227Z,51.4
2022-11-19T23:28:01.605Z,50.3
2022-11-19T23:33:01.101Z,50.4
2022-11-19T23:38:01.061Z,51.2
2022-11-19T23:43:01.225Z,54.4
2022-11-19T23:48:01.559Z,51.9
2022-11-19T23:53:01.575Z,47.4
2022-11-19T23:58:01.254Z,47.2
